createdAt,value
2022-12-16T00:01:13.888Z,95290.94
2022-12-16T00:03:44.218Z,95289.34
2022-12-16T00:06:12.299Z,95290.84
2022-12-16T00:08:41.893Z,95302.63
2022-12-16T00:11:10.822Z,95301.41
2022-12-16T00:13:41.256Z,95303.22
2022-12-16T00:16:12.765Z,95294.00
2022-12-16T00:18:41.690Z,95288.88
2022-12-16T00:21:10.339Z,95291.47
2022-12-16T00:23:39.381Z,95299.69
2022-12-16T00:26:09.509Z,95295.97
2022-12-16T00:28:38.047Z,95296.84
2022-12-16T00:31:11.066Z,95293.13
2022-12-16T00:33:39.148Z,95298.03
2022-12-16T00:36:08.543Z,95291.63
2022-12-16T00:38:36.703Z,95290.75
2022-12-16T00:41:04.963Z,95300.84
2022-12-16T00:43:34.665Z,95294.38
2022-12-16T00:46:02.938Z,95303.00
2022-12-16T00:48:31.010Z,95307.22
2022-12-16T00:50:59.022Z,95304.13
2022-12-16T00:53:27.351Z,95307.22
2022-12-16T00:56:04.029Z,95318.84
2022-12-16T00:58:32.327Z,95320.19
2022-12-16T01:01:02.367Z,95323.19
2022-12-16T01:03:30.575Z,95322.22
2022-12-16T01:05:58.649Z,95324.75
2022-12-16T01:08:27.209Z,95323.56
2022-12-16T01:10:58.120Z,95323.28
2022-12-16T01:13:27.012Z,95319.50
2022-12-16T01:15:55.189Z,95330.25
2022-12-16T01:18:24.622Z,95328.66
2022-12-16T01:20:52.790Z,95330.69
2022-12-16T01:23:23.046Z,95334.81
2022-12-16T01:25:56.501Z,95330.63
2022-12-16T01:28:24.496Z,95334.19
2022-12-16T01:31:01.692Z,95330.19
2022-12-16T01:33:33.583Z,95335.72
2022-12-16T01:36:04.355Z,95345.13
2022-12-16T01:38:33.194Z,95347.09
2022-12-16T01:41:01.779Z,95344.19
2022-12-16T01:43:32.624Z,95349.03
2022-12-16T01:46:08.659Z,95355.38
2022-12-16T01:48:45.858Z,95356.94
2022-12-16T01:51:21.333Z,95352.09
2022-12-16T01:53:51.733Z,95350.88
2022-12-16T01:56:28.549Z,95355.41
2022-12-16T01:58:57.207Z,95353.47
2022-12-16T02:01:25.331Z,95358.88
2022-12-16T02:03:57.388Z,95357.53
2022-12-16T02:06:25.557Z,95359.59
2022-12-16T02:08:59.037Z,95365.13
2022-12-16T02:11:53.445Z,95368.16
2022-12-16T02:14:53.325Z,95373.25
2022-12-16T02:17:31.996Z,95373.03
2022-12-16T02:20:42.547Z,95373.19
2022-12-16T02:24:00.952Z,95381.63
2022-12-16T02:27:02.432Z,95384.50
2022-12-16T02:30:29.299Z,95380.38
2022-12-16T02:33:20.049Z,95378.50
2022-12-16T02:35:56.449Z,95380.66
2022-12-16T02:38:39.163Z,95373.50
2022-12-16T02:41:16.735Z,95377.91
2022-12-16T02:43:55.639Z,95374.31
2022-12-16T02:46:27.453Z,95376.38
2022-12-16T02:48:57.571Z,95382.34
2022-12-16T02:51:27.972Z,95381.72
2022-12-16T02:53:56.705Z,95382.78
2022-12-16T02:56:41.603Z,95389.38
2022-12-16T02:59:24.245Z,95400.31
2022-12-16T03:01:59.861Z,95400.13
2022-12-16T03:04:38.052Z,95402.53
2022-12-16T03:07:12.226Z,95401.78
2022-12-16T03:09:42.011Z,95404.94
2022-12-16T03:12:14.305Z,95404.59
2022-12-16T03:14:47.447Z,95407.19
2022-12-16T03:17:17.646Z,95407.97
2022-12-16T03:19:54.526Z,95406.91
2022-12-16T03:22:29.070Z,95413.34
2022-12-16T03:24:57.523Z,95422.28
2022-12-16T03:27:35.497Z,95416.56
2022-12-16T03:30:08.115Z,95412.38
2022-12-16T03:32:42.107Z,95415.38
2022-12-16T03:35:19.821Z,95419.50
2022-12-16T03:37:51.857Z,95427.66
2022-12-16T03:40:21.910Z,95426.75
2022-12-16T03:42:50.461Z,95426.66
2022-12-16T03:45:24.713Z,95431.19
2022-12-16T03:47:53.921Z,95435.78
2022-12-16T03:50:29.519Z,95437.38
2022-12-16T03:52:57.684Z,95433.53
2022-12-16T03:55:25.944Z,95438.38
2022-12-16T03:57:54.071Z,95439.16
2022-12-16T04:00:22.760Z,95441.91
2022-12-16T04:02:51.191Z,95439.59
2022-12-16T04:05:19.505Z,95444.63
2022-12-16T04:07:48.901Z,95452.69
2022-12-16T04:10:17.131Z,95440.88
2022-12-16T04:13:02.748Z,95455.09
2022-12-16T04:15:48.231Z,95451.88
2022-12-16T04:18:37.036Z,95460.19
2022-12-16T04:21:31.904Z,95457.41
2022-12-16T04:24:18.938Z,95461.63
2022-12-16T04:27:13.444Z,95462.22
2022-12-16T04:29:57.218Z,95466.00
2022-12-16T04:32:26.149Z,95460.88
2022-12-16T04:34:53.190Z,95464.47
2022-12-16T04:37:38.700Z,95464.91
2022-12-16T04:40:26.786Z,95469.59
2022-12-16T04:43:14.467Z,95469.47
2022-12-16T04:45:59.524Z,95471.47
2022-12-16T04:48:45.131Z,95481.19
2022-12-16T04:51:30.834Z,95478.88
2022-12-16T04:54:16.418Z,95478.97
2022-12-16T04:56:59.692Z,95488.25
2022-12-16T04:59:45.408Z,95496.41
2022-12-16T05:02:31.059Z,95495.06
2022-12-16T05:05:16.965Z,95502.91
2022-12-16T05:08:02.946Z,95507.22
2022-12-16T05:10:48.412Z,95510.34
2022-12-16T05:13:35.612Z,95505.78
2022-12-16T05:16:21.426Z,95508.63
2022-12-16T05:19:07.217Z,95512.94
2022-12-16T05:21:53.287Z,95519.09
2022-12-16T05:24:39.139Z,95522.69
2022-12-16T05:27:24.720Z,95529.66
2022-12-16T05:30:11.938Z,95525.28
2022-12-16T05:32:57.504Z,95527.06
2022-12-16T05:35:43.191Z,95529.41
2022-12-16T05:38:28.733Z,95536.44
2022-12-16T05:41:14.508Z,95537.78
2022-12-16T05:44:00.128Z,95536.81
2022-12-16T05:46:47.408Z,95542.53
2022-12-16T05:49:33.115Z,95555.16
2022-12-16T05:52:30.171Z,95559.34
2022-12-16T05:55:15.934Z,95564.25
2022-12-16T05:58:01.626Z,95567.94
2022-12-16T06:00:46.999Z,95568.03
2022-12-16T06:03:34.406Z,95563.00
2022-12-16T06:06:20.535Z,95575.06
2022-12-16T06:09:06.053Z,95578.75
2022-12-16T06:11:52.118Z,95584.19
2022-12-16T06:14:37.574Z,95587.41
2022-12-16T06:17:23.166Z,95590.28
2022-12-16T06:20:10.059Z,95597.16
2022-12-16T06:22:55.805Z,95602.50
2022-12-16T06:25:41.439Z,95608.78
2022-12-16T06:28:27.121Z,95610.72
2022-12-16T06:31:12.952Z,95621.31
2022-12-16T06:34:13.183Z,95623.69
2022-12-16T06:37:00.462Z,95621.31
2022-12-16T06:39:49.976Z,95632.19
2022-12-16T06:42:38.492Z,95634.78
2022-12-16T06:45:28.909Z,95642.38
2022-12-16T06:48:17.341Z,95642.63
2022-12-16T06:51:03.639Z,95652.03
2022-12-16T06:53:50.889Z,95660.28
2022-12-16T06:56:36.589Z,95671.09
2022-12-16T06:59:22.295Z,95666.88
2022-12-16T07:02:08.269Z,95676.97
2022-12-16T07:04:54.029Z,95681.34
2022-12-16T07:07:39.896Z,95685.38
2022-12-16T07:10:28.287Z,95687.44
2022-12-16T07:13:17.105Z,95692.97
2022-12-16T07:16:03.607Z,95704.13
2022-12-16T07:18:49.277Z,95702.03
2022-12-16T07:21:35.111Z,95703.00
2022-12-16T07:24:20.724Z,95708.81
2022-12-16T07:27:08.072Z,95708.63
2022-12-16T07:29:53.908Z,95715.09
2022-12-16T07:32:39.660Z,95710.78
2022-12-16T07:35:25.867Z,95713.81
2022-12-16T07:38:11.364Z,95721.09
2022-12-16T07:40:57.944Z,95728.13
2022-12-16T07:43:44.985Z,95730.19
2022-12-16T07:46:32.712Z,95743.34
2022-12-16T07:49:18.583Z,95741.34
2022-12-16T07:52:04.283Z,95742.63
2022-12-16T07:54:50.097Z,95743.44
2022-12-16T07:57:36.752Z,95757.09
2022-12-16T08:00:25.365Z,95755.94
2022-12-16T08:03:14.874Z,95758.88
2022-12-16T08:06:00.790Z,95764.34
2022-12-16T08:08:46.436Z,95767.28
2022-12-16T08:11:32.282Z,95766.28
2022-12-16T08:14:20.849Z,95785.78
2022-12-16T08:17:08.080Z,95784.09
2022-12-16T08:19:54.287Z,95784.44
2022-12-16T08:22:40.171Z,95794.03
2022-12-16T08:25:27.623Z,95801.97
2022-12-16T08:28:13.393Z,95798.13
2022-12-16T08:30:59.140Z,95804.63
2022-12-16T08:33:51.712Z,95809.00
2022-12-16T08:36:38.496Z,95810.81
2022-12-16T08:39:20.516Z,95815.16
2022-12-16T08:42:06.265Z,95811.75
2022-12-16T08:44:51.939Z,95820.19
2022-12-16T08:47:38.656Z,95824.22
2022-12-16T08:50:27.042Z,95831.38
2022-12-16T08:53:12.435Z,95842.19
2022-12-16T08:55:58.122Z,95839.09
2022-12-16T08:58:43.896Z,95840.69
2022-12-16T09:01:29.420Z,95838.28
2022-12-16T09:04:15.534Z,95843.78
2022-12-16T09:07:02.704Z,95848.47
2022-12-16T09:09:48.562Z,95854.13
2022-12-16T09:12:40.250Z,95855.22
2022-12-16T09:15:27.268Z,95858.09
2022-12-16T09:18:14.037Z,95868.19
2022-12-16T09:21:00.198Z,95875.78
2022-12-16T09:23:47.362Z,95873.03
2022-12-16T09:26:33.259Z,95872.88
2022-12-16T09:29:19.005Z,95877.22
2022-12-16T09:32:04.599Z,95875.13
2022-12-16T09:34:50.453Z,95888.53
2022-12-16T09:37:36.015Z,95885.28
2022-12-16T09:40:24.984Z,95889.88
2022-12-16T09:43:19.852Z,95883.84
2022-12-16T09:46:14.468Z,95888.72
2022-12-16T09:49:07.545Z,95898.84
2022-12-16T09:51:55.481Z,95890.19
2022-12-16T09:54:45.890Z,95905.59
2022-12-16T09:57:34.806Z,95897.31
2022-12-16T10:00:25.050Z,95908.47
2022-12-16T10:03:11.543Z,95907.81
2022-12-16T10:06:10.561Z,95906.13
2022-12-16T10:09:11.732Z,95907.91
2022-12-16T10:12:07.606Z,95904.81
2022-12-16T10:15:04.049Z,95903.88
2022-12-16T10:17:49.536Z,95906.31
2022-12-16T10:20:48.896Z,95900.13
2022-12-16T10:23:41.356Z,95902.50
2022-12-16T10:26:36.246Z,95903.81
2022-12-16T10:29:31.513Z,95903.81
2022-12-16T10:32:18.650Z,95911.09
2022-12-16T10:35:04.609Z,95919.97
2022-12-16T10:37:55.523Z,95921.88
2022-12-16T10:40:44.686Z,95914.53
2022-12-16T10:43:37.130Z,95921.72
2022-12-16T10:46:31.213Z,95914.38
2022-12-16T10:49:18.382Z,95919.50
2022-12-16T10:52:08.963Z,95912.69
2022-12-16T10:55:01.397Z,95918.06
2022-12-16T10:58:04.437Z,95925.16
2022-12-16T11:01:01.533Z,95922.94
2022-12-16T11:03:50.433Z,95929.97
2022-12-16T11:06:41.644Z,95937.47
2022-12-16T11:09:41.393Z,95936.38
2022-12-16T11:12:40.566Z,95937.25
2022-12-16T11:15:45.590Z,95936.69
2022-12-16T11:18:33.354Z,95937.31
2022-12-16T11:21:34.058Z,95943.31
2022-12-16T11:24:34.522Z,95935.59
2022-12-16T11:27:23.145Z,95940.25
2022-12-16T11:30:11.956Z,95936.50
2022-12-16T11:33:02.359Z,95942.59
2022-12-16T11:35:52.049Z,95939.03
2022-12-16T11:38:43.518Z,95949.88
2022-12-16T11:41:42.797Z,95953.03
2022-12-16T11:44:37.477Z,95949.28
2022-12-16T11:47:34.293Z,95960.28
2022-12-16T11:50:20.386Z,95962.53
2022-12-16T11:53:14.927Z,95963.91
2022-12-16T11:56:11.242Z,95959.78
2022-12-16T11:59:07.371Z,95962.28
2022-12-16T12:02:00.639Z,95969.91
2022-12-16T12:04:46.571Z,95978.75
2022-12-16T12:07:46.472Z,95979.75
2022-12-16T12:11:02.027Z,95978.13
2022-12-16T12:14:10.316Z,95981.13
2022-12-16T12:17:09.791Z,95990.75
2022-12-16T12:20:11.061Z,95988.75
2022-12-16T12:22:58.243Z,95992.69
2022-12-16T12:25:53.222Z,95996.03
2022-12-16T12:28:53.232Z,96000.59
2022-12-16T12:31:55.192Z,96013.06
2022-12-16T12:34:48.838Z,96013.13
2022-12-16T12:37:43.498Z,96006.78
2022-12-16T12:40:48.401Z,96007.13
2022-12-16T12:43:50.901Z,96010.31
2022-12-16T12:47:02.082Z,96007.13
2022-12-16T12:49:55.937Z,96014.19
2022-12-16T12:53:12.319Z,96008.63
2022-12-16T12:56:18.322Z,96016.25
2022-12-16T12:59:05.012Z,96007.53
2022-12-16T13:01:55.998Z,96006.63
2022-12-16T13:04:47.078Z,96012.66
2022-12-16T13:07:33.300Z,96016.25
2022-12-16T13:10:51.110Z,96020.47
2022-12-16T13:13:51.793Z,96022.13
2022-12-16T13:17:26.646Z,96020.84
2022-12-16T13:20:16.832Z,96027.38
2022-12-16T13:23:04.151Z,96037.75
2022-12-16T13:25:59.161Z,96047.63
2022-12-16T13:28:50.546Z,96054.59
2022-12-16T13:31:36.956Z,96052.19
2022-12-16T13:34:38.331Z,96060.00
2022-12-16T13:37:34.706Z,96067.94
2022-12-16T13:40:24.813Z,96068.16
2022-12-16T13:43:13.344Z,96071.38
2022-12-16T13:46:02.413Z,96078.66
2022-12-16T13:48:54.561Z,96082.56
2022-12-16T13:52:18.998Z,96091.47
2022-12-16T13:55:30.426Z,96092.97
2022-12-16T13:58:24.665Z,96095.84
2022-12-16T14:01:37.347Z,96096.69
2022-12-16T14:04:28.629Z,96097.66
2022-12-16T14:07:24.589Z,96112.47
2022-12-16T14:10:12.683Z,96109.72
2022-12-16T14:13:20.534Z,96122.03
2022-12-16T14:16:17.315Z,96125.78
2022-12-16T14:19:18.703Z,96115.72
2022-12-16T14:22:16.533Z,96136.16
2022-12-16T14:25:03.773Z,96139.91
2022-12-16T14:27:53.679Z,96147.66
2022-12-16T14:30:42.517Z,96150.13
2022-12-16T14:33:41.048Z,96151.41
2022-12-16T14:36:43.697Z,96165.53
2022-12-16T14:39:31.934Z,96164.97
2022-12-16T14:42:21.115Z,96167.44
2022-12-16T14:45:06.832Z,96173.94
2022-12-16T14:47:52.653Z,96172.63
2022-12-16T14:50:43.987Z,96180.25
2022-12-16T14:53:37.701Z,96186.25
2022-12-16T14:56:36.316Z,96184.63
2022-12-16T14:59:44.142Z,96189.63
2022-12-16T15:02:41.963Z,96192.56
2022-12-16T15:05:28.479Z,96190.75
2022-12-16T15:08:14.227Z,96194.09
2022-12-16T15:11:00.535Z,96195.28
2022-12-16T15:13:46.830Z,96197.88
2022-12-16T15:16:39.798Z,96200.19
2022-12-16T15:19:28.281Z,96213.47
2022-12-16T15:22:18.892Z,96208.63
2022-12-16T15:25:04.623Z,96212.19
2022-12-16T15:27:55.060Z,96211.69
2022-12-16T15:31:05.527Z,96220.78
2022-12-16T15:33:55.119Z,96224.38
2022-12-16T15:36:47.516Z,96228.28
2022-12-16T15:39:39.774Z,96232.84
2022-12-16T15:42:50.257Z,96236.56
2022-12-16T15:45:47.455Z,96243.53
2022-12-16T15:48:39.513Z,96257.00
2022-12-16T15:51:47.187Z,96261.88
2022-12-16T15:54:40.352Z,96265.78
2022-12-16T15:57:46.369Z,96268.84
2022-12-16T16:00:51.202Z,96274.03
2022-12-16T16:03:42.651Z,96271.78
2022-12-16T16:06:36.584Z,96280.53
2022-12-16T16:09:33.132Z,96284.09
2022-12-16T16:12:18.759Z,96286.22
2022-12-16T16:15:04.463Z,96293.84
2022-12-16T16:17:50.258Z,96295.75
2022-12-16T16:20:36.886Z,96299.81
2022-12-16T16:23:22.924Z,96306.81
2022-12-16T16:26:24.803Z,96306.16
2022-12-16T16:29:10.428Z,96308.28
2022-12-16T16:32:03.607Z,96312.16
2022-12-16T16:38:00.655Z,96322.38
2022-12-16T16:40:52.617Z,96326.44
2022-12-16T16:43:48.385Z,96326.09
2022-12-16T16:46:49.319Z,96329.19
2022-12-16T16:49:41.676Z,96322.53
2022-12-16T16:52:33.256Z,96326.91
2022-12-16T16:55:19.253Z,96334.69
2022-12-16T16:58:05.166Z,96336.47
2022-12-16T17:00:52.238Z,96341.50
2022-12-16T17:03:38.727Z,96343.31
2022-12-16T17:06:25.330Z,96347.50
2022-12-16T17:09:11.237Z,96349.13
2022-12-16T17:11:57.281Z,96355.44
2022-12-16T17:14:43.199Z,96359.19
2022-12-16T17:17:30.069Z,96357.56
2022-12-16T17:20:15.751Z,96364.06
2022-12-16T17:23:01.682Z,96366.16
2022-12-16T17:25:47.489Z,96369.09
2022-12-16T17:28:33.085Z,96377.81
2022-12-16T17:31:18.979Z,96378.31
2022-12-16T17:34:05.972Z,96379.78
2022-12-16T17:36:51.574Z,96390.94
2022-12-16T17:39:37.427Z,96389.00
2022-12-16T17:42:23.322Z,96393.03
2022-12-16T17:45:08.944Z,96400.03
2022-12-16T17:47:54.890Z,96401.47
2022-12-16T17:50:42.050Z,96408.47
2022-12-16T17:53:27.648Z,96413.81
2022-12-16T17:56:13.498Z,96404.59
2022-12-16T17:58:59.164Z,96412.03
2022-12-16T18:01:44.765Z,96405.56
2022-12-16T18:04:30.438Z,96404.97
2022-12-16T18:07:17.277Z,96410.72
2022-12-16T18:10:02.878Z,96411.06
2022-12-16T18:12:50.448Z,96421.03
2022-12-16T18:15:36.082Z,96416.91
2022-12-16T18:18:22.068Z,96428.13
2022-12-16T18:21:07.813Z,96430.13
2022-12-16T18:23:55.105Z,96429.88
2022-12-16T18:26:40.904Z,96432.97
2022-12-16T18:29:26.610Z,96442.56
2022-12-16T18:32:12.569Z,96438.69
2022-12-16T18:34:58.365Z,96448.75
2022-12-16T18:37:44.335Z,96447.59
2022-12-16T18:40:31.469Z,96453.78
2022-12-16T18:43:17.484Z,96456.19
2022-12-16T18:46:09.506Z,96458.94
2022-12-16T18:48:55.560Z,96474.66
2022-12-16T18:51:41.330Z,96483.69
2022-12-16T18:54:27.122Z,96473.66
2022-12-16T18:57:14.168Z,96476.25
2022-12-16T18:59:59.804Z,96470.09
2022-12-16T19:02:45.559Z,96482.56
2022-12-16T19:08:41.507Z,96487.94
2022-12-16T19:11:27.173Z,96495.69
2022-12-16T19:14:22.594Z,96504.91
2022-12-16T19:17:16.938Z,96498.94
2022-12-16T19:20:02.795Z,96503.16
2022-12-16T19:22:48.295Z,96505.41
2022-12-16T19:25:34.282Z,96509.44
2022-12-16T19:28:26.369Z,96513.66
2022-12-16T19:31:16.442Z,96516.84
2022-12-16T19:34:04.985Z,96519.56
2022-12-16T19:36:50.878Z,96529.47
2022-12-16T19:39:37.678Z,96532.91
2022-12-16T19:42:23.742Z,96532.06
2022-12-16T19:45:09.504Z,96543.91
2022-12-16T19:47:56.736Z,96539.75
2022-12-16T19:50:42.593Z,96544.28
2022-12-16T19:53:35.298Z,96552.81
2022-12-16T19:56:20.949Z,96547.63
2022-12-16T19:59:06.935Z,96556.00
2022-12-16T20:01:52.872Z,96560.72
2022-12-16T20:04:42.222Z,96556.44
2022-12-16T20:07:28.230Z,96569.72
2022-12-16T20:10:13.770Z,96572.66
2022-12-16T20:12:59.421Z,96578.56
2022-12-16T20:15:45.296Z,96581.19
2022-12-16T20:18:31.045Z,96585.84
2022-12-16T20:21:21.842Z,96588.44
2022-12-16T20:24:08.133Z,96596.25
2022-12-16T20:26:53.756Z,96603.31
2022-12-16T20:29:41.399Z,96605.09
2022-12-16T20:32:26.997Z,96602.50
2022-12-16T20:35:12.580Z,96604.78
2022-12-16T20:37:59.517Z,96601.53
2022-12-16T20:40:45.327Z,96608.94
2022-12-16T20:43:31.211Z,96610.59
2022-12-16T20:46:16.817Z,96611.19
2022-12-16T20:49:04.098Z,96604.28
2022-12-16T20:51:58.144Z,96607.47
2022-12-16T20:54:45.310Z,96617.69
2022-12-16T20:57:30.895Z,96607.63
2022-12-16T21:00:18.729Z,96615.94
2022-12-16T21:03:04.606Z,96621.47
2022-12-16T21:05:50.316Z,96632.34
2022-12-16T21:08:36.099Z,96633.16
2022-12-16T21:11:23.236Z,96640.13
2022-12-16T21:14:09.188Z,96648.91
2022-12-16T21:16:55.972Z,96643.03
2022-12-16T21:19:41.994Z,96644.31
2022-12-16T21:22:27.946Z,96646.56
2022-12-16T21:25:13.477Z,96658.53
2022-12-16T21:28:00.687Z,96650.59
2022-12-16T21:30:46.620Z,96655.25
2022-12-16T21:33:37.329Z,96664.78
2022-12-16T21:36:24.306Z,96660.69
2022-12-16T21:39:10.146Z,96664.78
2022-12-16T21:41:56.173Z,96667.19
2022-12-16T21:44:42.616Z,96668.31
2022-12-16T21:47:28.558Z,96673.88
2022-12-16T21:50:14.445Z,96677.88
2022-12-16T21:53:00.848Z,96688.09
2022-12-16T21:55:46.600Z,96688.47
2022-12-16T21:58:32.185Z,96694.63
2022-12-16T22:01:19.364Z,96695.13
2022-12-16T22:04:05.150Z,96699.13
2022-12-16T22:06:50.693Z,96699.94
2022-12-16T22:09:36.395Z,96710.75
2022-12-16T22:12:22.474Z,96712.22
2022-12-16T22:15:08.135Z,96711.88
2022-12-16T22:17:58.503Z,96727.63
2022-12-16T22:20:44.930Z,96725.88
2022-12-16T22:23:30.777Z,96733.41
2022-12-16T22:26:17.009Z,96736.94
2022-12-16T22:29:02.760Z,96742.81
2022-12-16T22:31:49.055Z,96745.09
2022-12-16T22:34:36.462Z,96753.16
2022-12-16T22:37:22.457Z,96764.53
2022-12-16T22:40:08.189Z,96759.53
2022-12-16T22:42:54.028Z,96759.53
2022-12-16T22:45:41.794Z,96766.41
2022-12-16T22:48:29.999Z,96769.03
2022-12-16T22:51:17.062Z,96765.78
2022-12-16T22:54:02.837Z,96781.59
2022-12-16T22:56:48.463Z,96784.22
2022-12-16T22:59:34.390Z,96780.69
2022-12-16T23:05:39.754Z,96795.44
2022-12-16T23:08:26.908Z,96793.00
2022-12-16T23:11:13.465Z,96790.53
2022-12-16T23:14:00.883Z,96793.25
2022-12-16T23:16:46.424Z,96787.16
2022-12-16T23:19:31.910Z,96798.88
2022-12-16T23:22:17.623Z,96798.06
2022-12-16T23:25:06.955Z,96800.25
2022-12-16T23:27:52.490Z,96805.59
2022-12-16T23:30:39.571Z,96802.59
2022-12-16T23:33:25.031Z,96797.69
2022-12-16T23:36:10.419Z,96796.34
2022-12-16T23:38:56.457Z,96798.91
2022-12-16T23:41:43.649Z,96795.53
2022-12-16T23:44:29.385Z,96798.53
2022-12-16T23:47:15.198Z,96797.81
2022-12-16T23:50:00.955Z,96800.72
2022-12-16T23:52:46.587Z,96796.59
2022-12-16T23:55:32.079Z,96804.06
2022-12-16T23:58:20.283Z,96809.47
